createdAt,value
2023-05-10T00:00:18.739Z,38.17
2023-05-10T00:01:18.476Z,38.16
2023-05-10T00:02:18.510Z,38.19
2023-05-10T00:03:18.601Z,38.12
2023-05-10T00:04:18.743Z,38.15
2023-05-10T00:05:18.595Z,38.17
2023-05-10T00:06:18.624Z,38.11
2023-05-10T00:07:18.690Z,38.13
2023-05-10T00:08:18.724Z,38.14
2023-05-10T00:09:18.744Z,38.11
2023-05-10T00:10:18.902Z,38.16
2023-05-10T00:11:20.371Z,38.17
2023-05-10T00:12:18.854Z,38.15
2023-05-10T00:13:18.939Z,38.15
2023-05-10T00:14:18.879Z,38.18
2023-05-10T00:15:18.879Z,38.14
2023-05-10T00:16:18.898Z,38.11
2023-05-10T00:17:18.889Z,38.12
2023-05-10T00:18:18.900Z,38.12
2023-05-10T00:19:18.909Z,38.12
2023-05-10T00:20:19.167Z,38.18
2023-05-10T00:21:18.943Z,38.24
2023-05-10T00:22:18.963Z,38.15
2023-05-10T00:23:18.953Z,38.16
2023-05-10T00:24:18.971Z,38.17
2023-05-10T00:25:18.994Z,38.18
2023-05-10T00:26:19.007Z,38.20
2023-05-10T00:27:19.001Z,38.28
2023-05-10T00:28:19.044Z,38.30
2023-05-10T00:29:19.036Z,38.31
2023-05-10T00:30:19.291Z,38.31
2023-05-10T00:31:19.041Z,38.36
2023-05-10T00:32:19.209Z,38.27
2023-05-10T00:33:19.053Z,38.28
2023-05-10T00:34:19.763Z,38.35
2023-05-10T00:35:19.044Z,38.37
2023-05-10T00:36:19.050Z,38.34
2023-05-10T00:37:19.064Z,38.33
2023-05-10T00:38:19.082Z,38.31
2023-05-10T00:39:19.117Z,38.24
2023-05-10T00:40:19.266Z,38.33
2023-05-10T00:41:19.095Z,38.34
2023-05-10T00:42:19.092Z,38.34
2023-05-10T00:43:19.112Z,38.33
2023-05-10T00:44:19.109Z,38.38
2023-05-10T00:45:19.150Z,38.29
2023-05-10T00:46:19.185Z,38.31
2023-05-10T00:47:19.172Z,38.27
2023-05-10T00:48:19.225Z,38.29
2023-05-10T00:49:19.264Z,38.34
2023-05-10T00:50:19.326Z,38.31
2023-05-10T00:51:19.376Z,38.34
2023-05-10T00:52:19.420Z,38.28
2023-05-10T00:53:19.491Z,38.28
2023-05-10T00:54:19.519Z,38.35
2023-05-10T00:55:19.564Z,38.31
2023-05-10T00:56:19.613Z,38.27
2023-05-10T00:57:19.664Z,38.26
2023-05-10T00:58:19.717Z,38.32
2023-05-10T00:59:19.768Z,38.37
2023-05-10T01:00:19.813Z,38.27
2023-05-10T01:01:19.986Z,38.31
2023-05-10T01:02:20.002Z,38.31
2023-05-10T01:03:20.138Z,38.28
2023-05-10T01:04:20.024Z,38.32
2023-05-10T01:05:20.125Z,38.28
2023-05-10T01:06:20.137Z,38.28
2023-05-10T01:07:20.178Z,38.28
2023-05-10T01:08:20.246Z,38.27
2023-05-10T01:09:20.283Z,38.25
2023-05-10T01:10:20.332Z,38.31
2023-05-10T01:11:20.394Z,38.27
2023-05-10T01:12:20.505Z,38.29
2023-05-10T01:13:20.551Z,38.29
2023-05-10T01:14:20.547Z,38.27
2023-05-10T01:15:20.604Z,38.29
2023-05-10T01:16:20.714Z,38.24
2023-05-10T01:17:20.753Z,38.28
2023-05-10T01:18:20.764Z,38.31
2023-05-10T01:19:20.807Z,38.32
2023-05-10T01:20:20.859Z,38.28
2023-05-10T01:21:20.915Z,38.29
2023-05-10T01:22:20.978Z,38.27
2023-05-10T01:23:21.021Z,38.25
2023-05-10T01:24:21.068Z,38.29
2023-05-10T01:25:21.119Z,38.28
2023-05-10T01:26:21.169Z,38.28
2023-05-10T01:27:21.214Z,38.29
2023-05-10T01:28:21.265Z,38.32
2023-05-10T01:29:21.314Z,38.30
2023-05-10T01:31:20.456Z,38.32
2023-05-10T01:32:21.464Z,38.30
2023-05-10T01:33:21.573Z,38.27
2023-05-10T01:34:21.570Z,38.29
2023-05-10T01:35:21.613Z,38.33
2023-05-10T01:36:21.672Z,38.31
2023-05-10T01:37:21.731Z,38.32
2023-05-10T01:38:21.779Z,38.29
2023-05-10T01:39:21.831Z,38.30
2023-05-10T01:40:21.885Z,38.32
2023-05-10T01:41:21.952Z,38.25
2023-05-10T01:42:21.978Z,38.32
2023-05-10T01:43:22.032Z,38.28
2023-05-10T01:44:22.090Z,38.32
2023-05-10T01:45:22.138Z,38.27
2023-05-10T01:46:22.218Z,38.35
2023-05-10T01:47:22.252Z,38.26
2023-05-10T01:48:22.309Z,38.32
2023-05-10T01:49:22.392Z,38.30
2023-05-10T01:50:22.422Z,38.33
2023-05-10T01:51:22.461Z,38.28
2023-05-10T01:52:22.554Z,38.29
2023-05-10T01:53:22.586Z,38.36
2023-05-10T01:54:22.670Z,38.30
2023-05-10T01:55:22.676Z,38.29
2023-05-10T01:56:22.711Z,38.29
2023-05-10T01:57:22.766Z,38.29
2023-05-10T01:58:22.811Z,38.33
2023-05-10T01:59:22.871Z,38.30
2023-05-10T02:00:22.920Z,38.28
2023-05-10T02:01:23.036Z,38.29
2023-05-10T02:02:23.048Z,38.32
2023-05-10T02:03:23.128Z,38.35
2023-05-10T02:04:23.149Z,38.32
2023-05-10T02:05:23.223Z,38.32
2023-05-10T02:06:23.300Z,38.28
2023-05-10T02:07:23.296Z,38.30
2023-05-10T02:08:23.367Z,38.33
2023-05-10T02:09:23.404Z,38.33
2023-05-10T02:10:23.463Z,38.32
2023-05-10T02:11:23.530Z,38.34
2023-05-10T02:12:23.578Z,38.28
2023-05-10T02:13:23.675Z,38.36
2023-05-10T02:14:23.674Z,38.34
2023-05-10T02:15:23.729Z,38.34
2023-05-10T02:16:23.856Z,38.36
2023-05-10T02:17:23.853Z,38.29
2023-05-10T02:18:23.870Z,38.35
2023-05-10T02:19:23.930Z,38.27
2023-05-10T02:20:23.975Z,38.35
2023-05-10T02:21:24.066Z,38.32
2023-05-10T02:22:24.085Z,38.35
2023-05-10T02:23:24.149Z,38.32
2023-05-10T02:24:24.187Z,38.32
2023-05-10T02:25:24.260Z,38.31
2023-05-10T02:26:24.301Z,38.30
2023-05-10T02:27:24.356Z,38.35
2023-05-10T02:28:24.397Z,38.36
2023-05-10T02:29:24.444Z,38.33
2023-05-10T02:30:24.498Z,38.33
2023-05-10T02:31:24.551Z,38.33
2023-05-10T02:32:24.638Z,38.33
2023-05-10T02:33:24.655Z,38.39
2023-05-10T02:34:24.700Z,38.40
2023-05-10T02:35:24.809Z,38.39
2023-05-10T02:36:24.811Z,38.33
2023-05-10T02:37:24.981Z,38.34
2023-05-10T02:38:24.927Z,38.34
2023-05-10T02:39:24.969Z,38.34
2023-05-10T02:40:26.801Z,38.33
2023-05-10T02:41:25.033Z,38.34
2023-05-10T02:42:25.036Z,38.39
2023-05-10T02:43:25.048Z,38.36
2023-05-10T02:44:25.067Z,38.33
2023-05-10T02:45:25.071Z,38.36
2023-05-10T02:46:25.113Z,38.37
2023-05-10T02:47:25.065Z,38.37
2023-05-10T02:48:25.072Z,38.35
2023-05-10T02:49:25.088Z,38.31
2023-05-10T02:50:25.091Z,38.37
2023-05-10T02:51:25.103Z,38.31
2023-05-10T02:52:25.134Z,38.35
2023-05-10T02:53:25.146Z,38.31
2023-05-10T02:54:25.129Z,38.35
2023-05-10T02:55:25.140Z,38.35
2023-05-10T02:56:25.139Z,38.34
2023-05-10T02:57:25.153Z,38.37
2023-05-10T02:58:25.156Z,38.41
2023-05-10T02:59:25.182Z,38.34
2023-05-10T03:00:25.168Z,38.38
2023-05-10T03:01:25.197Z,38.34
2023-05-10T03:02:25.246Z,38.34
2023-05-10T03:03:25.203Z,38.38
2023-05-10T03:04:25.286Z,38.38
2023-05-10T03:05:25.216Z,38.34
2023-05-10T03:06:25.214Z,38.35
2023-05-10T03:07:25.240Z,38.38
2023-05-10T03:08:25.221Z,38.37
2023-05-10T03:09:25.247Z,38.38
2023-05-10T03:10:25.224Z,38.34
2023-05-10T03:11:25.245Z,38.37
2023-05-10T03:12:25.276Z,38.35
2023-05-10T03:13:25.367Z,38.35
2023-05-10T03:14:25.392Z,38.33
2023-05-10T03:15:25.467Z,38.35
2023-05-10T03:16:25.543Z,38.34
2023-05-10T03:17:25.620Z,38.39
2023-05-10T03:18:25.610Z,38.34
2023-05-10T03:19:25.679Z,38.37
2023-05-10T03:20:25.717Z,38.35
2023-05-10T03:21:25.770Z,38.38
2023-05-10T03:22:25.842Z,38.38
2023-05-10T03:23:25.887Z,38.37
2023-05-10T03:24:25.960Z,38.38
2023-05-10T03:25:26.032Z,38.38
2023-05-10T03:26:26.076Z,38.35
2023-05-10T03:27:26.135Z,38.38
2023-05-10T03:28:26.180Z,38.39
2023-05-10T03:29:26.230Z,38.37
2023-05-10T03:30:26.307Z,38.39
2023-05-10T03:31:26.399Z,38.39
2023-05-10T03:32:26.441Z,38.32
2023-05-10T03:33:26.461Z,38.33
2023-05-10T03:34:26.519Z,38.39
2023-05-10T03:35:26.577Z,38.38
2023-05-10T03:36:26.627Z,38.37
2023-05-10T03:37:26.694Z,38.38
2023-05-10T03:38:28.366Z,38.40
2023-05-10T03:39:26.749Z,38.40
2023-05-10T03:40:26.760Z,38.40
2023-05-10T03:41:26.786Z,38.37
2023-05-10T03:42:26.772Z,38.39
2023-05-10T03:43:26.782Z,38.40
2023-05-10T03:44:26.791Z,38.37
2023-05-10T03:45:26.804Z,38.37
2023-05-10T03:46:26.860Z,38.38
2023-05-10T03:47:26.813Z,38.33
2023-05-10T03:48:26.797Z,38.37
2023-05-10T03:49:26.807Z,38.36
2023-05-10T03:50:26.801Z,38.36
2023-05-10T03:51:26.816Z,38.36
2023-05-10T03:52:26.818Z,38.43
2023-05-10T03:53:26.818Z,38.39
2023-05-10T03:54:26.839Z,38.39
2023-05-10T03:55:26.826Z,38.36
2023-05-10T03:56:26.882Z,38.38
2023-05-10T03:57:26.992Z,38.39
2023-05-10T03:58:27.010Z,38.38
2023-05-10T03:59:27.076Z,38.38
2023-05-10T04:00:27.130Z,38.37
2023-05-10T04:01:27.192Z,38.39
2023-05-10T04:02:27.351Z,38.33
2023-05-10T04:03:27.349Z,38.40
2023-05-10T04:04:27.374Z,38.39
2023-05-10T04:05:27.439Z,38.40
2023-05-10T04:06:27.550Z,38.38
2023-05-10T04:07:27.571Z,38.38
2023-05-10T04:08:27.620Z,38.38
2023-05-10T04:09:27.676Z,38.36
2023-05-10T04:10:27.732Z,38.38
2023-05-10T04:11:27.796Z,38.36
2023-05-10T04:12:27.853Z,38.39
2023-05-10T04:13:28.006Z,38.34
2023-05-10T04:14:27.984Z,38.36
2023-05-10T04:15:28.059Z,38.35
2023-05-10T04:16:28.137Z,38.38
2023-05-10T04:17:28.191Z,38.40
2023-05-10T04:18:28.223Z,38.43
2023-05-10T04:19:28.266Z,38.38
2023-05-10T04:20:28.326Z,38.33
2023-05-10T04:21:28.404Z,38.38
2023-05-10T04:22:28.448Z,38.36
2023-05-10T04:23:28.499Z,38.38
2023-05-10T04:24:28.561Z,38.42
2023-05-10T04:25:28.616Z,38.35
2023-05-10T04:26:28.679Z,38.33
2023-05-10T04:27:28.739Z,38.40
2023-05-10T04:28:28.835Z,38.39
2023-05-10T04:29:28.890Z,38.36
2023-05-10T04:30:28.907Z,38.39
2023-05-10T04:31:29.074Z,38.40
2023-05-10T04:32:29.074Z,38.39
2023-05-10T04:33:29.124Z,38.33
2023-05-10T04:34:29.166Z,38.39
2023-05-10T04:35:29.206Z,38.36
2023-05-10T04:36:29.299Z,38.40
2023-05-10T04:37:29.325Z,38.38
2023-05-10T04:38:29.387Z,38.35
2023-05-10T04:39:29.441Z,38.36
2023-05-10T04:40:29.504Z,38.36
2023-05-10T04:41:29.623Z,38.36
2023-05-10T04:42:29.628Z,38.38
2023-05-10T04:43:29.685Z,38.38
2023-05-10T04:44:29.757Z,38.35
2023-05-10T04:45:29.842Z,38.38
2023-05-10T04:46:29.981Z,38.32
2023-05-10T04:47:29.961Z,38.37
2023-05-10T04:48:30.004Z,38.40
2023-05-10T04:49:30.077Z,38.41
2023-05-10T04:50:30.134Z,38.42
2023-05-10T04:51:30.200Z,38.36
2023-05-10T04:52:30.297Z,38.39
2023-05-10T04:53:30.328Z,38.37
2023-05-10T04:54:30.404Z,38.39
2023-05-10T04:55:30.460Z,38.36
2023-05-10T04:56:30.514Z,38.39
2023-05-10T04:57:30.594Z,38.40
2023-05-10T04:58:30.644Z,38.38
2023-05-10T04:59:30.707Z,38.39
2023-05-10T05:00:30.764Z,38.36
2023-05-10T05:01:30.898Z,38.39
2023-05-10T05:02:30.981Z,38.42
2023-05-10T05:03:31.040Z,38.39
2023-05-10T05:04:31.055Z,38.37
2023-05-10T05:05:31.072Z,38.35
2023-05-10T05:06:31.137Z,38.36
2023-05-10T05:07:31.187Z,38.43
2023-05-10T05:08:31.250Z,38.42
2023-05-10T05:09:31.322Z,38.39
2023-05-10T05:10:31.384Z,38.38
2023-05-10T05:11:31.451Z,38.39
2023-05-10T05:12:31.507Z,38.39
2023-05-10T05:13:31.599Z,38.41
2023-05-10T05:14:31.627Z,38.39
2023-05-10T05:15:31.688Z,38.35
2023-05-10T05:16:31.882Z,38.36
2023-05-10T05:17:31.886Z,38.39
2023-05-10T05:18:31.873Z,38.40
2023-05-10T05:19:32.383Z,38.40
2023-05-10T05:20:32.386Z,38.46
2023-05-10T05:21:32.052Z,38.64
2023-05-10T05:22:32.113Z,38.52
2023-05-10T05:23:32.191Z,38.46
2023-05-10T05:24:32.238Z,38.46
2023-05-10T05:25:32.305Z,38.46
2023-05-10T05:26:32.367Z,38.39
2023-05-10T05:27:32.423Z,38.37
2023-05-10T05:28:32.473Z,38.37
2023-05-10T05:29:32.524Z,38.37
2023-05-10T05:30:32.583Z,38.42
2023-05-10T05:31:32.695Z,38.43
2023-05-10T05:32:32.782Z,38.42
2023-05-10T05:33:32.776Z,38.41
2023-05-10T05:34:32.815Z,38.47
2023-05-10T05:35:32.878Z,38.47
2023-05-10T05:36:32.931Z,38.48
2023-05-10T05:37:32.982Z,38.44
2023-05-10T05:38:33.039Z,38.47
2023-05-10T05:39:33.094Z,38.50
2023-05-10T05:40:33.138Z,38.50
2023-05-10T05:41:33.203Z,38.50
2023-05-10T05:42:33.261Z,38.57
2023-05-10T05:43:33.665Z,38.50
2023-05-10T05:44:33.383Z,38.63
2023-05-10T05:45:33.451Z,38.84
2023-05-10T05:46:33.474Z,38.72
2023-05-10T05:47:33.564Z,38.73
2023-05-10T05:48:33.595Z,38.74
2023-05-10T05:49:33.912Z,38.59
2023-05-10T05:50:33.886Z,38.72
2023-05-10T05:51:33.727Z,38.67
2023-05-10T05:52:33.783Z,38.85
2023-05-10T05:53:33.830Z,39.38
2023-05-10T05:54:33.898Z,39.36
2023-05-10T05:55:33.920Z,39.31
2023-05-10T05:56:33.966Z,39.20
2023-05-10T05:57:33.995Z,39.27
2023-05-10T05:58:34.412Z,39.22
2023-05-10T05:59:34.389Z,39.33
2023-05-10T06:00:34.130Z,39.44
2023-05-10T06:01:34.144Z,39.53
2023-05-10T06:02:34.317Z,39.90
2023-05-10T06:03:34.245Z,39.93
2023-05-10T06:04:34.446Z,39.95
2023-05-10T06:05:34.275Z,39.99
2023-05-10T06:06:34.271Z,40.26
2023-05-10T06:07:34.394Z,40.24
2023-05-10T06:08:34.446Z,40.51
2023-05-10T06:09:34.340Z,40.60
2023-05-10T06:10:34.372Z,40.59
2023-05-10T06:11:34.374Z,40.71
2023-05-10T06:12:34.393Z,40.78
2023-05-10T06:13:34.543Z,40.77
2023-05-10T06:14:35.370Z,40.82
2023-05-10T06:15:34.376Z,40.88
2023-05-10T06:16:34.457Z,41.08
2023-05-10T06:17:34.399Z,41.06
2023-05-10T06:18:34.365Z,41.09
2023-05-10T06:19:34.438Z,41.21
2023-05-10T06:20:34.378Z,41.22
2023-05-10T06:21:34.400Z,41.27
2023-05-10T06:22:34.402Z,41.33
2023-05-10T06:23:34.393Z,41.36
2023-05-10T06:24:34.904Z,41.31
2023-05-10T06:25:34.448Z,41.45
2023-05-10T06:26:34.475Z,41.45
2023-05-10T06:27:34.497Z,41.44
2023-05-10T06:28:34.514Z,41.53
2023-05-10T06:29:34.908Z,41.55
2023-05-10T06:30:34.600Z,41.54
2023-05-10T06:31:34.705Z,41.55
2023-05-10T06:32:34.743Z,41.63
2023-05-10T06:33:34.742Z,41.68
2023-05-10T06:34:34.905Z,41.75
2023-05-10T06:35:34.882Z,41.67
2023-05-10T06:36:35.958Z,41.76
2023-05-10T06:37:35.028Z,41.80
2023-05-10T06:38:35.406Z,41.83
2023-05-10T06:39:35.143Z,41.98
2023-05-10T06:40:35.213Z,42.03
2023-05-10T06:41:35.280Z,42.01
2023-05-10T06:42:35.328Z,42.00
2023-05-10T06:43:35.408Z,42.06
2023-05-10T06:44:35.920Z,42.16
2023-05-10T06:45:35.517Z,42.47
2023-05-10T06:46:35.592Z,42.45
2023-05-10T06:47:38.698Z,42.38
2023-05-10T06:48:35.634Z,42.20
2023-05-10T06:49:35.919Z,42.26
2023-05-10T06:50:35.931Z,42.19
2023-05-10T06:51:35.638Z,42.15
2023-05-10T06:52:35.643Z,42.18
2023-05-10T06:53:35.682Z,42.13
2023-05-10T06:54:35.925Z,42.12
2023-05-10T06:55:35.644Z,42.09
2023-05-10T06:56:36.647Z,42.11
2023-05-10T06:57:35.645Z,42.14
2023-05-10T06:58:51.539Z,42.08
2023-05-10T06:59:35.745Z,42.12
2023-05-10T07:00:38.898Z,42.12
2023-05-10T07:01:35.756Z,42.14
2023-05-10T07:02:35.677Z,42.25
2023-05-10T07:03:35.658Z,42.18
2023-05-10T07:04:35.960Z,42.25
2023-05-10T07:05:35.878Z,42.30
2023-05-10T07:06:35.662Z,42.31
2023-05-10T07:07:35.686Z,42.40
2023-05-10T07:08:35.668Z,42.34
2023-05-10T07:09:36.005Z,42.42
2023-05-10T07:10:35.665Z,42.33
2023-05-10T07:11:36.679Z,42.32
2023-05-10T07:12:35.808Z,42.32
2023-05-10T07:13:35.721Z,42.37
2023-05-10T07:14:35.680Z,42.33
2023-05-10T07:15:35.685Z,42.31
2023-05-10T07:16:35.928Z,42.34
2023-05-10T07:17:35.790Z,42.34
2023-05-10T07:18:35.801Z,42.35
2023-05-10T07:19:35.732Z,42.31
2023-05-10T07:20:35.724Z,42.30
2023-05-10T07:21:35.792Z,42.30
2023-05-10T07:22:35.739Z,42.28
2023-05-10T07:23:35.754Z,42.29
2023-05-10T07:24:35.764Z,42.34
2023-05-10T07:25:35.823Z,42.26
2023-05-10T07:26:35.927Z,42.34
2023-05-10T07:27:35.788Z,42.29
2023-05-10T07:28:35.945Z,42.26
2023-05-10T07:29:35.786Z,42.25
2023-05-10T07:30:35.824Z,42.29
2023-05-10T07:31:35.811Z,42.33
2023-05-10T07:32:36.044Z,42.23
2023-05-10T07:33:35.827Z,42.26
2023-05-10T07:34:35.963Z,42.31
2023-05-10T07:35:35.853Z,42.25
2023-05-10T07:36:35.865Z,42.20
2023-05-10T07:37:35.879Z,42.47
2023-05-10T07:38:35.853Z,42.33
2023-05-10T07:39:36.079Z,42.34
2023-05-10T07:40:35.916Z,42.32
2023-05-10T07:41:36.221Z,42.43
2023-05-10T07:42:35.925Z,42.55
2023-05-10T07:43:35.917Z,42.46
2023-05-10T07:44:35.971Z,42.45
2023-05-10T07:45:35.947Z,42.56
2023-05-10T07:46:35.955Z,42.51
2023-05-10T07:47:35.958Z,42.46
2023-05-10T07:48:35.970Z,42.53
2023-05-10T07:49:35.960Z,42.53
2023-05-10T07:50:35.965Z,42.53
2023-05-10T07:51:35.967Z,43.27
2023-05-10T07:52:36.388Z,42.85
2023-05-10T07:53:35.996Z,42.60
2023-05-10T07:54:36.454Z,42.52
2023-05-10T07:55:36.012Z,42.49
2023-05-10T07:56:39.255Z,42.47
2023-05-10T07:57:36.027Z,42.44
2023-05-10T07:58:37.059Z,42.44
2023-05-10T07:59:36.459Z,42.37
2023-05-10T08:00:36.106Z,42.44
2023-05-10T08:01:36.448Z,42.40
2023-05-10T08:02:36.301Z,42.38
2023-05-10T08:03:36.233Z,42.37
2023-05-10T08:04:36.228Z,42.35
2023-05-10T08:05:36.118Z,42.38
2023-05-10T08:06:36.441Z,42.36
2023-05-10T08:07:36.131Z,42.42
2023-05-10T08:08:36.132Z,42.39
2023-05-10T08:09:36.145Z,42.32
2023-05-10T08:10:36.156Z,42.35
2023-05-10T08:11:36.164Z,42.34
2023-05-10T08:12:36.185Z,42.29
2023-05-10T08:13:36.166Z,42.31
2023-05-10T08:14:36.166Z,42.36
2023-05-10T08:15:36.245Z,42.28
2023-05-10T08:16:36.180Z,42.25
2023-05-10T08:17:36.211Z,42.31
2023-05-10T08:18:36.202Z,42.32
2023-05-10T08:19:36.213Z,42.29
2023-05-10T08:20:36.184Z,42.27
2023-05-10T08:21:36.189Z,42.24
2023-05-10T08:22:36.210Z,42.26
2023-05-10T08:23:36.201Z,42.25
2023-05-10T08:24:36.209Z,42.24
2023-05-10T08:25:36.969Z,42.31
2023-05-10T08:26:36.182Z,42.23
2023-05-10T08:27:36.245Z,42.24
2023-05-10T08:28:36.212Z,42.21
2023-05-10T08:29:48.937Z,42.23
2023-05-10T08:30:36.195Z,42.18
2023-05-10T08:31:36.262Z,42.23
2023-05-10T08:32:36.229Z,42.16
2023-05-10T08:33:36.201Z,42.21
2023-05-10T08:34:36.207Z,42.21
2023-05-10T08:35:36.445Z,42.20
2023-05-10T08:36:36.209Z,42.15
2023-05-10T08:37:36.244Z,42.20
2023-05-10T08:38:36.228Z,42.14
2023-05-10T08:39:36.481Z,42.14
2023-05-10T08:40:43.703Z,42.13
2023-05-10T08:41:36.502Z,42.17
2023-05-10T08:42:37.218Z,42.11
2023-05-10T08:43:36.246Z,42.08
2023-05-10T08:44:36.290Z,42.10
2023-05-10T08:45:37.531Z,42.08
2023-05-10T08:46:36.324Z,42.07
2023-05-10T08:47:36.311Z,42.08
2023-05-10T08:48:36.261Z,42.03
2023-05-10T08:49:36.268Z,42.07
2023-05-10T08:50:36.452Z,42.07
2023-05-10T08:51:36.277Z,42.04
2023-05-10T08:52:36.301Z,41.98
2023-05-10T08:53:36.328Z,42.04
2023-05-10T08:54:36.499Z,41.94
2023-05-10T08:55:36.371Z,41.97
2023-05-10T08:56:36.399Z,42.03
2023-05-10T08:57:36.421Z,41.97
2023-05-10T08:58:36.457Z,41.97
2023-05-10T08:59:36.466Z,41.93
2023-05-10T09:00:36.523Z,41.98
2023-05-10T09:01:36.505Z,41.94
2023-05-10T09:02:36.556Z,41.97
2023-05-10T09:03:36.577Z,41.92
2023-05-10T09:04:37.062Z,41.92
2023-05-10T09:05:36.894Z,41.90
2023-05-10T09:06:36.615Z,41.83
2023-05-10T09:07:36.664Z,41.83
2023-05-10T09:08:36.671Z,41.82
2023-05-10T09:09:36.970Z,41.87
2023-05-10T09:10:36.713Z,41.86
2023-05-10T09:11:36.743Z,41.92
2023-05-10T09:12:36.791Z,41.82
2023-05-10T09:13:36.788Z,41.84
2023-05-10T09:14:37.433Z,41.84
2023-05-10T09:15:36.967Z,41.76
2023-05-10T09:16:36.936Z,41.82
2023-05-10T09:17:36.919Z,41.85
2023-05-10T09:18:36.936Z,41.87
2023-05-10T09:19:36.936Z,41.83
2023-05-10T09:20:37.465Z,41.79
2023-05-10T09:21:37.092Z,41.79
2023-05-10T09:22:37.035Z,41.77
2023-05-10T09:23:37.041Z,41.73
2023-05-10T09:24:37.067Z,41.77
2023-05-10T09:25:37.471Z,41.74
2023-05-10T09:26:37.189Z,41.77
2023-05-10T09:27:37.162Z,41.76
2023-05-10T09:28:37.167Z,42.43
2023-05-10T09:29:37.494Z,43.59
2023-05-10T09:30:37.306Z,43.05
2023-05-10T09:31:38.326Z,43.03
2023-05-10T09:32:37.608Z,42.96
2023-05-10T09:33:40.549Z,42.89
2023-05-10T09:34:37.469Z,42.69
2023-05-10T09:35:38.473Z,44.38
2023-05-10T09:36:37.437Z,44.79
2023-05-10T09:37:37.370Z,43.63
2023-05-10T09:38:37.476Z,43.42
2023-05-10T09:39:37.394Z,42.80
2023-05-10T09:40:37.397Z,42.52
2023-05-10T09:41:37.400Z,42.42
2023-05-10T09:42:37.398Z,42.29
2023-05-10T09:43:37.476Z,42.38
2023-05-10T09:44:37.475Z,42.57
2023-05-10T09:45:39.117Z,42.86
2023-05-10T09:46:37.670Z,43.01
2023-05-10T09:47:37.553Z,43.32
2023-05-10T09:48:37.594Z,43.93
2023-05-10T09:49:37.979Z,44.04
2023-05-10T09:50:37.585Z,44.31
2023-05-10T09:51:37.662Z,44.57
2023-05-10T09:52:37.568Z,44.69
2023-05-10T09:53:37.980Z,44.86
2023-05-10T09:54:37.644Z,45.00
2023-05-10T09:55:37.591Z,45.02
2023-05-10T09:56:38.015Z,45.01
2023-05-10T09:57:37.589Z,45.23
2023-05-10T09:58:37.586Z,45.19
2023-05-10T09:59:37.599Z,45.22
2023-05-10T10:00:37.990Z,45.24
2023-05-10T10:01:37.798Z,45.63
2023-05-10T10:02:37.665Z,45.60
2023-05-10T10:03:37.618Z,45.44
2023-05-10T10:04:37.781Z,45.46
2023-05-10T10:05:37.997Z,45.55
2023-05-10T10:06:37.631Z,45.57
2023-05-10T10:07:37.644Z,45.60
2023-05-10T10:08:37.636Z,45.61
2023-05-10T10:09:37.637Z,45.73
2023-05-10T10:10:37.998Z,45.71
2023-05-10T10:11:37.650Z,45.83
2023-05-10T10:12:37.655Z,45.91
2023-05-10T10:13:37.929Z,45.92
2023-05-10T10:14:37.671Z,46.15
2023-05-10T10:15:38.016Z,46.04
2023-05-10T10:16:43.688Z,45.98
2023-05-10T10:17:37.785Z,46.09
2023-05-10T10:18:38.046Z,46.17
2023-05-10T10:19:38.293Z,46.20
2023-05-10T10:20:38.028Z,46.30
2023-05-10T10:21:37.758Z,46.28
2023-05-10T10:22:37.761Z,46.30
2023-05-10T10:23:37.781Z,46.44
2023-05-10T10:24:37.759Z,46.42
2023-05-10T10:25:37.996Z,46.41
2023-05-10T10:26:38.782Z,46.41
2023-05-10T10:27:37.769Z,46.44
2023-05-10T10:28:37.771Z,46.55
2023-05-10T10:29:37.785Z,46.53
2023-05-10T10:30:37.995Z,46.60
2023-05-10T10:31:37.883Z,46.54
2023-05-10T10:32:37.756Z,46.57
2023-05-10T10:33:37.810Z,46.52
2023-05-10T10:34:37.773Z,46.46
2023-05-10T10:35:37.998Z,46.42
2023-05-10T10:36:37.834Z,46.37
2023-05-10T10:37:37.760Z,46.40
2023-05-10T10:38:37.770Z,46.65
2023-05-10T10:39:38.086Z,46.67
2023-05-10T10:40:37.778Z,46.60
2023-05-10T10:41:38.013Z,46.54
2023-05-10T10:42:37.839Z,46.64
2023-05-10T10:43:38.878Z,46.67
2023-05-10T10:44:37.908Z,46.69
2023-05-10T10:45:37.927Z,46.70
2023-05-10T10:46:37.976Z,46.71
2023-05-10T10:47:38.015Z,46.78
2023-05-10T10:48:37.997Z,46.73
2023-05-10T10:49:38.043Z,46.54
2023-05-10T10:50:38.322Z,46.60
2023-05-10T10:51:38.506Z,46.65
2023-05-10T10:52:38.186Z,46.58
2023-05-10T10:53:38.129Z,46.62
2023-05-10T10:54:38.153Z,46.63
2023-05-10T10:55:38.172Z,46.57
2023-05-10T10:56:38.229Z,46.60
2023-05-10T10:57:38.514Z,46.60
2023-05-10T10:58:38.229Z,46.69
2023-05-10T10:59:38.243Z,46.66
2023-05-10T11:00:38.293Z,46.69
2023-05-10T11:01:38.790Z,46.76
2023-05-10T11:02:38.299Z,47.26
2023-05-10T11:03:38.317Z,47.02
2023-05-10T11:04:38.621Z,47.21
2023-05-10T11:05:38.349Z,47.74
2023-05-10T11:06:38.385Z,47.10
2023-05-10T11:07:38.400Z,47.20
2023-05-10T11:08:38.454Z,47.13
2023-05-10T11:09:38.518Z,47.06
2023-05-10T11:10:38.453Z,47.00
2023-05-10T11:11:38.508Z,46.93
2023-05-10T11:12:38.510Z,46.93
2023-05-10T11:13:38.546Z,46.93
2023-05-10T11:14:38.571Z,46.94
2023-05-10T11:15:38.605Z,46.88
2023-05-10T11:16:39.137Z,46.92
2023-05-10T11:17:38.704Z,46.91
2023-05-10T11:18:38.753Z,46.94
2023-05-10T11:19:38.753Z,46.94
2023-05-10T11:20:38.799Z,46.95
2023-05-10T11:21:38.843Z,46.94
2023-05-10T11:22:38.895Z,46.91
2023-05-10T11:23:38.946Z,46.98
2023-05-10T11:24:39.089Z,46.96
2023-05-10T11:25:39.052Z,46.95
2023-05-10T11:26:39.105Z,47.00
2023-05-10T11:27:39.153Z,47.05
2023-05-10T11:28:39.197Z,47.06
2023-05-10T11:29:39.252Z,47.05
2023-05-10T11:30:39.336Z,46.96
2023-05-10T11:31:39.518Z,46.97
2023-05-10T11:32:39.457Z,46.96
2023-05-10T11:33:39.488Z,46.98
2023-05-10T11:34:39.564Z,47.04
2023-05-10T11:35:41.756Z,46.95
2023-05-10T11:36:39.616Z,46.92
2023-05-10T11:37:39.613Z,46.94
2023-05-10T11:38:39.651Z,46.91
2023-05-10T11:39:39.603Z,46.96
2023-05-10T11:40:39.641Z,46.92
2023-05-10T11:41:41.053Z,46.85
2023-05-10T11:42:40.018Z,46.91
2023-05-10T11:43:39.606Z,46.84
2023-05-10T11:44:39.621Z,46.85
2023-05-10T11:45:39.619Z,46.86
2023-05-10T11:46:39.676Z,46.81
2023-05-10T11:47:42.071Z,46.86
2023-05-10T11:48:39.628Z,46.89
2023-05-10T11:49:39.636Z,46.86
2023-05-10T11:50:39.635Z,46.87
2023-05-10T11:51:39.640Z,46.84
2023-05-10T11:52:39.647Z,46.85
2023-05-10T11:53:39.640Z,46.88
2023-05-10T11:54:39.632Z,46.86
2023-05-10T11:55:39.637Z,46.86
2023-05-10T11:56:39.677Z,46.83
2023-05-10T11:57:39.653Z,46.84
2023-05-10T11:58:40.025Z,46.78
2023-05-10T11:59:41.714Z,46.82
2023-05-10T12:00:39.666Z,46.80
2023-05-10T12:01:40.032Z,46.78
2023-05-10T12:02:39.799Z,46.79
2023-05-10T12:03:39.882Z,46.69
2023-05-10T12:04:39.729Z,46.80
2023-05-10T12:05:41.592Z,46.74
2023-05-10T12:06:39.780Z,46.77
2023-05-10T12:07:39.729Z,46.73
2023-05-10T12:08:39.807Z,46.69
2023-05-10T12:09:44.159Z,46.68
2023-05-10T12:10:39.766Z,46.74
2023-05-10T12:11:42.501Z,46.77
2023-05-10T12:12:39.805Z,46.72
2023-05-10T12:13:39.779Z,46.68
2023-05-10T12:14:39.794Z,46.65
2023-05-10T12:15:39.795Z,46.62
2023-05-10T12:16:39.842Z,46.69
2023-05-10T12:17:41.970Z,46.66
2023-05-10T12:18:39.833Z,46.69
2023-05-10T12:19:39.888Z,46.66
2023-05-10T12:20:39.831Z,46.65
2023-05-10T12:21:40.100Z,46.63
2023-05-10T12:22:39.845Z,46.59
2023-05-10T12:23:39.859Z,46.57
2023-05-10T12:24:39.862Z,46.57
2023-05-10T12:25:39.891Z,46.54
2023-05-10T12:26:40.035Z,46.51
2023-05-10T12:27:39.893Z,46.58
2023-05-10T12:28:39.904Z,46.54
2023-05-10T12:29:41.553Z,46.53
2023-05-10T12:30:39.892Z,46.55
2023-05-10T12:31:39.937Z,46.50
2023-05-10T12:32:39.920Z,46.46
2023-05-10T12:33:39.920Z,46.41
2023-05-10T12:34:39.974Z,46.38
2023-05-10T12:35:41.173Z,46.42
2023-05-10T12:36:39.919Z,46.39
2023-05-10T12:37:39.946Z,46.35
2023-05-10T12:38:39.934Z,46.34
2023-05-10T12:39:39.942Z,46.34
2023-05-10T12:40:39.951Z,46.33
2023-05-10T12:41:41.473Z,46.33
2023-05-10T12:42:40.068Z,46.33
2023-05-10T12:43:40.040Z,46.30
2023-05-10T12:44:39.987Z,46.26
2023-05-10T12:45:39.999Z,46.24
2023-05-10T12:46:40.022Z,46.22
2023-05-10T12:47:43.035Z,46.18
2023-05-10T12:48:40.000Z,46.14
2023-05-10T12:49:40.036Z,46.14
2023-05-10T12:50:40.020Z,46.09
2023-05-10T12:51:40.041Z,46.13
2023-05-10T12:52:39.991Z,46.12
2023-05-10T12:53:40.912Z,46.09